Time;durP1;ratioP1;P1;durP2;ratioP2;P2;SDS_P1;SDS_P2;PMS_P1;PMS_P2;Temp;Humidity;BMP_temperature;BMP_pressure;BME280_temperature;BME280_humidity;BME280_pressure;Samples;Min_cycle;Max_cycle;Signal;HPM_P1;HPM_P2
2023/05/02 00:01:15;;;;;;;19.57;11.17;;;10.10;98.60;;;;;;5089884;27;20476;-61
2023/05/02 00:03:42;;;;;;;11.87;8.50;;;10.10;98.30;;;;;;5083868;27;20484;-60
2023/05/02 00:06:10;;;;;;;16.97;11.00;;;10.10;98.30;;;;;;5083019;27;20551;-61
2023/05/02 00:08:36;;;;;;;14.90;9.97;;;10.00;98.50;;;;;;5095752;27;20566;-61
2023/05/02 00:11:04;;;;;;;11.97;8.93;;;9.90;99.30;;;;;;5074123;27;20990;-61
2023/05/02 00:13:30;;;;;;;17.70;11.50;;;10.00;99.00;;;;;;5073093;28;21123;-61
2023/05/02 00:15:57;;;;;;;12.73;9.10;;;9.90;99.10;;;;;;5060754;27;20837;-61
2023/05/02 00:18:25;;;;;;;17.53;11.83;;;9.90;99.00;;;;;;5091365;27;20478;-61
2023/05/02 00:20:52;;;;;;;10.00;7.57;;;9.80;98.50;;;;;;5065477;27;21215;-61
2023/05/02 00:23:20;;;;;;;11.03;8.77;;;9.80;98.50;;;;;;5082632;27;20489;-61
2023/05/02 00:25:47;;;;;;;15.73;11.03;;;9.70;98.40;;;;;;5089155;27;20469;-61
2023/05/02 00:28:13;;;;;;;15.47;10.60;;;9.50;98.60;;;;;;5078154;27;20982;-61
2023/05/02 00:30:43;;;;;;;19.13;11.77;;;9.60;99.90;;;;;;5082700;27;20476;-60
2023/05/02 00:33:11;;;;;;;16.10;11.37;;;9.30;99.90;;;;;;5087296;27;20481;-61
2023/05/02 00:35:39;;;;;;;24.33;14.90;;;9.30;99.90;;;;;;5078877;27;20466;-60
2023/05/02 00:38:06;;;;;;;19.80;10.30;;;9.40;99.90;;;;;;5069947;28;20478;-61
2023/05/02 00:40:43;;;;;;;24.03;14.30;;;9.40;99.90;;;;;;5089728;27;20489;-60
2023/05/02 00:43:10;;;;;;;19.00;12.23;;;;;;;;;;5069198;28;20472;-60
2023/05/02 00:45:39;;;;;;;19.40;12.00;;;9.50;99.30;;;;;;5067071;28;21002;-61
2023/05/02 00:48:06;;;;;;;21.87;11.80;;;9.40;99.00;;;;;;5068712;28;20534;-60
2023/05/02 00:50:35;;;;;;;22.70;13.67;;;9.40;99.00;;;;;;5065208;27;20491;-60
2023/05/02 00:53:04;;;;;;;15.00;9.40;;;9.40;99.00;;;;;;5074207;27;20478;-61
2023/05/02 00:55:31;;;;;;;27.27;15.40;;;9.30;99.00;;;;;;5058305;27;20488;-61
2023/05/02 00:57:58;;;;;;;16.10;9.50;;;9.30;99.10;;;;;;5082510;27;20474;-60
2023/05/02 01:00:36;;;;;;;22.43;13.77;;;9.30;98.90;;;;;;5069987;27;21248;-60
2023/05/02 01:03:12;;;;;;;12.23;8.13;;;9.30;98.80;;;;;;5074220;28;20478;-60
2023/05/02 01:05:45;;;;;;;19.37;12.53;;;9.30;98.70;;;;;;5067686;28;20465;-60
2023/05/02 01:08:20;;;;;;;14.40;9.57;;;9.20;98.50;;;;;;5074956;28;20566;-61
2023/05/02 01:10:51;;;;;;;17.00;9.33;;;9.20;98.60;;;;;;5070213;28;20556;-61
2023/05/02 01:13:22;;;;;;;19.23;11.30;;;9.10;98.70;;;;;;5070954;28;20479;-61
2023/05/02 01:15:53;;;;;;;16.33;10.40;;;9.00;99.00;;;;;;5064932;28;20471;-60
2023/05/02 01:18:23;;;;;;;33.53;16.50;;;9.00;99.40;;;;;;5065606;27;21044;-61
2023/05/02 01:20:54;;;;;;;14.60;9.53;;;9.00;99.50;;;;;;5083031;27;20551;-61
2023/05/02 01:23:28;;;;;;;27.13;13.37;;;9.10;99.20;;;;;;5067735;28;20462;-61
2023/05/02 01:26:05;;;;;;;12.93;8.60;;;9.10;99.10;;;;;;5077690;27;20923;-61
2023/05/02 01:28:46;;;;;;;28.83;13.00;;;9.10;98.70;;;;;;5072886;27;21035;-61
2023/05/02 01:31:15;;;;;;;12.90;8.50;;;9.00;98.50;;;;;;5067505;28;20498;-61
2023/05/02 01:33:44;;;;;;;17.50;9.60;;;9.00;98.30;;;;;;5068374;28;21033;-60
2023/05/02 01:36:13;;;;;;;19.60;12.00;;;9.00;98.30;;;;;;5066994;27;21105;-60
2023/05/02 01:38:42;;;;;;;15.17;9.60;;;9.00;98.30;;;;;;5079177;27;20482;-60
2023/05/02 01:41:10;;;;;;;20.07;10.43;;;9.00;98.40;;;;;;5065905;28;20467;-60
2023/05/02 01:43:39;;;;;;;17.57;10.97;;;9.00;98.40;;;;;;5071853;28;21325;-61
2023/05/02 01:46:08;;;;;;;21.30;12.70;;;8.90;98.20;;;;;;5070865;28;20479;-61
2023/05/02 01:48:36;;;;;;;23.47;11.37;;;8.80;98.10;;;;;;5082871;27;20520;-60
2023/05/02 01:51:05;;;;;;;20.73;10.10;;;8.80;98.20;;;;;;5084422;27;20482;-60
2023/05/02 01:53:34;;;;;;;34.17;17.43;;;8.80;98.10;;;;;;5091826;27;20465;-61
2023/05/02 01:56:02;;;;;;;19.93;9.60;;;8.60;98.50;;;;;;5056001;27;20474;-60
2023/05/02 01:58:31;;;;;;;28.63;13.93;;;8.50;98.70;;;;;;5090779;28;20481;-61
2023/05/02 02:00:59;;;;;;;15.33;10.40;;;8.50;98.90;;;;;;5090416;27;20480;-60
2023/05/02 02:03:29;;;;;;;23.40;12.60;;;8.50;99.00;;;;;;5075453;28;20467;-61
2023/05/02 02:05:57;;;;;;;15.80;9.70;;;8.60;99.10;;;;;;5053690;28;20933;-61
2023/05/02 02:08:24;;;;;;;27.13;14.20;;;8.60;99.00;;;;;;5069708;28;20482;-61
2023/05/02 02:10:56;;;;;;;16.30;10.43;;;8.70;99.00;;;;;;5064045;27;20468;-61
2023/05/02 02:13:28;;;;;;;33.43;15.47;;;8.70;99.10;;;;;;5078524;27;20847;-61
2023/05/02 02:16:01;;;;;;;16.90;11.00;;;8.50;99.90;;;;;;5095555;27;20560;-61
2023/05/02 02:18:32;;;;;;;31.50;16.33;;;8.40;99.90;;;;;;5075541;28;20481;-60
2023/05/02 02:20:59;;;;;;;35.13;11.57;;;8.30;99.90;;;;;;5097864;27;20534;-60
2023/05/02 02:23:28;;;;;;;24.90;13.60;;;8.40;99.90;;;;;;5074208;28;20810;-60
2023/05/02 02:25:56;;;;;;;17.93;10.00;;;8.40;99.90;;;;;;5061678;27;20593;-61
2023/05/02 02:28:23;;;;;;;22.20;10.20;;;8.40;99.90;;;;;;5107496;27;20478;-60
2023/05/02 02:30:50;;;;;;;15.27;10.23;;;8.40;99.90;;;;;;5082449;27;20476;-60
2023/05/02 02:33:18;;;;;;;20.37;12.00;;;8.40;99.90;;;;;;5090637;27;20524;-60
2023/05/02 02:35:53;;;;;;;18.30;10.37;;;8.40;99.90;;;;;;5074756;28;20492;-61
2023/05/02 02:38:36;;;;;;;31.97;14.80;;;8.50;99.90;;;;;;5059479;27;20481;-61
2023/05/02 02:41:11;;;;;;;16.77;8.33;;;8.50;99.60;;;;;;5101569;27;20477;-61
2023/05/02 02:43:47;;;;;;;13.63;9.50;;;8.60;99.60;;;;;;5065349;28;20485;-60
2023/05/02 02:46:22;;;;;;;16.93;9.90;;;8.60;99.30;;;;;;5083213;28;20465;-60
2023/05/02 02:48:55;;;;;;;14.33;9.63;;;8.50;99.40;;;;;;5062893;28;20481;-61
2023/05/02 02:51:31;;;;;;;22.70;10.70;;;8.40;99.50;;;;;;5081828;27;20477;-61
2023/05/02 02:54:02;;;;;;;17.80;10.37;;;8.20;99.90;;;;;;5080582;28;20568;-61
2023/05/02 02:56:37;;;;;;;17.07;11.30;;;8.00;99.90;;;;;;5094234;28;20494;-60
2023/05/02 02:59:12;;;;;;;17.83;10.70;;;7.90;99.90;;;;;;5070923;28;20505;-60
2023/05/02 03:01:43;;;;;;;19.43;11.10;;;7.80;99.90;;;;;;5083982;27;21237;-60
2023/05/02 03:04:12;;;;;;;21.60;10.87;;;7.70;99.90;;;;;;5076350;28;20493;-60
2023/05/02 03:06:40;;;;;;;16.83;11.50;;;7.70;99.90;;;;;;5082301;28;20487;-60
2023/05/02 03:09:15;;;;;;;21.27;13.17;;;7.90;99.90;;;;;;5067008;28;20475;-61
2023/05/02 03:11:42;;;;;;;17.47;11.20;;;8.00;99.90;;;;;;5093862;28;20491;-60
2023/05/02 03:14:09;;;;;;;24.80;12.33;;;8.10;99.90;;;;;;5082039;28;20471;-61
2023/05/02 03:16:37;;;;;;;24.30;11.67;;;8.20;99.90;;;;;;5076884;28;20490;-60
2023/05/02 03:19:04;;;;;;;14.43;9.10;;;8.20;99.90;;;;;;5071617;27;20572;-60
2023/05/02 03:21:31;;;;;;;29.50;14.80;;;8.30;99.90;;;;;;5102868;27;20565;-60
2023/05/02 03:24:00;;;;;;;15.20;10.17;;;8.10;99.90;;;;;;5078444;28;21072;-60
2023/05/02 03:26:27;;;;;;;29.73;15.40;;;8.10;99.90;;;;;;5077617;28;20540;-60
2023/05/02 03:28:54;;;;;;;16.90;10.17;;;8.00;99.90;;;;;;5072784;28;20482;-60
2023/05/02 03:31:21;;;;;;;30.43;14.30;;;8.00;99.90;;;;;;5108217;27;20479;-60
2023/05/02 03:33:47;;;;;;;18.63;12.10;;;8.10;99.90;;;;;;5070791;28;20505;-60
2023/05/02 03:36:15;;;;;;;26.47;13.83;;;8.00;99.90;;;;;;5092470;27;20494;-60
2023/05/02 03:38:41;;;;;;;21.00;10.30;;;8.10;99.90;;;;;;5081287;27;20477;-60
2023/05/02 03:41:09;;;;;;;20.37;11.10;;;8.10;99.90;;;;;;5098568;27;20575;-59
2023/05/02 03:43:36;;;;;;;23.07;12.33;;;8.20;99.90;;;;;;5077617;28;20478;-60
2023/05/02 03:46:08;;;;;;;19.00;8.97;;;8.30;99.90;;;;;;5083615;27;20503;-60
2023/05/02 03:48:35;;;;;;;23.00;11.10;;;8.30;99.80;;;;;;5119612;27;20475;-59
2023/05/02 03:51:02;;;;;;;28.60;12.10;;;8.20;99.50;;;;;;5086332;27;20810;-60
2023/05/02 03:53:30;;;;;;;30.93;11.70;;;8.20;99.60;;;;;;5087671;27;20489;-60
2023/05/02 03:55:57;;;;;;;11.40;7.87;;;8.30;99.50;;;;;;5099527;27;20492;-60
2023/05/02 03:58:26;;;;;;;33.13;13.97;;;8.20;99.20;;;;;;5077661;28;20561;-60
2023/05/02 04:00:52;;;;;;;24.20;11.50;;;8.00;99.60;;;;;;5076468;28;20813;-60
2023/05/02 04:03:20;;;;;;;26.70;14.87;;;7.90;99.90;;;;;;5069298;27;20488;-60
2023/05/02 04:05:46;;;;;;;19.60;10.43;;;8.00;99.90;;;;;;5088687;27;20487;-60
2023/05/02 04:08:13;;;;;;;25.03;10.30;;;7.90;99.90;;;;;;5103882;27;20480;-59
2023/05/02 04:10:40;;;;;;;30.20;12.07;;;7.90;99.90;;;;;;5087888;28;20483;-59
2023/05/02 04:13:07;;;;;;;20.90;10.77;;;7.70;99.90;;;;;;5084418;28;21083;-60
2023/05/02 04:15:35;;;;;;;30.10;11.80;;;7.80;99.90;;;;;;5073167;28;20474;-60
2023/05/02 04:18:01;;;;;;;20.13;10.20;;;7.80;99.90;;;;;;5080412;28;20837;-60
2023/05/02 04:20:29;;;;;;;50.03;17.67;;;7.90;99.90;;;;;;5086581;28;20483;-60
2023/05/02 04:22:56;;;;;;;22.30;9.90;;;7.90;99.90;;;;;;5073571;27;20925;-61
2023/05/02 04:25:23;;;;;;;35.70;15.07;;;7.90;99.90;;;;;;5081608;27;20486;-60
2023/05/02 04:27:49;;;;;;;24.27;12.10;;;8.00;99.90;;;;;;5078197;28;20481;-61
2023/05/02 04:30:16;;;;;;;26.13;13.43;;;7.90;99.90;;;;;;5070669;27;20547;-60
2023/05/02 04:32:44;;;;;;;21.57;11.73;;;7.90;99.90;;;;;;5086530;27;20483;-61
2023/05/02 04:35:11;;;;;;;20.10;11.87;;;8.00;99.90;;;;;;5069797;27;20553;-60
2023/05/02 04:37:37;;;;;;;26.10;10.80;;;8.00;99.90;;;;;;5091500;27;20463;-61
2023/05/02 04:40:05;;;;;;;19.27;11.40;;;8.00;99.90;;;;;;5064594;27;20546;-61
2023/05/02 04:42:32;;;;;;;30.23;15.43;;;8.10;99.90;;;;;;5107687;27;20580;-61
2023/05/02 04:44:58;;;;;;;17.40;10.10;;;8.00;99.90;;;;;;5096016;28;20485;-60
2023/05/02 04:47:25;;;;;;;31.40;15.33;;;8.10;99.90;;;;;;5079691;27;20774;-61
2023/05/02 04:49:53;;;;;;;20.13;11.47;;;8.10;99.90;;;;;;5072335;28;20491;-60
2023/05/02 04:52:20;;;;;;;34.10;14.13;;;8.20;99.90;;;;;;5083332;27;20486;-60
2023/05/02 04:54:47;;;;;;;19.70;11.60;;;8.20;99.70;;;;;;5103902;27;20593;-60
2023/05/02 04:57:14;;;;;;;19.83;11.60;;;8.20;99.90;;;;;;5089184;28;20509;-60
2023/05/02 04:59:41;;;;;;;28.67;14.47;;;8.10;99.90;;;;;;5089160;28;20480;-60
2023/05/02 05:02:07;;;;;;;23.33;14.00;;;8.20;99.90;;;;;;5089443;28;20813;-60
2023/05/02 05:04:34;;;;;;;31.53;16.40;;;8.10;99.90;;;;;;5082650;28;20893;-60
2023/05/02 05:07:03;;;;;;;23.00;10.90;;;8.20;99.90;;;;;;5076865;28;20482;-60
2023/05/02 05:09:29;;;;;;;39.73;16.93;;;8.30;99.90;;;;;;5089921;28;20472;-60
2023/05/02 05:11:56;;;;;;;22.50;11.90;;;8.40;99.90;;;;;;5082497;28;20490;-60
2023/05/02 05:14:23;;;;;;;50.57;19.43;;;8.40;99.90;;;;;;5079993;28;20904;-60
2023/05/02 05:16:49;;;;;;;161.30;75.60;;;8.40;99.90;;;;;;5076816;28;20478;-60
2023/05/02 05:19:16;;;;;;;37.00;17.97;;;8.40;99.90;;;;;;5077720;28;20623;-60
2023/05/02 05:21:43;;;;;;;32.17;14.57;;;8.50;99.90;;;;;;5084225;28;20477;-60
2023/05/02 05:24:11;;;;;;;23.00;12.17;;;8.60;99.90;;;;;;5082969;28;20475;-60
2023/05/02 05:26:37;;;;;;;37.20;16.77;;;8.70;99.90;;;;;;5074566;28;20489;-60
2023/05/02 05:29:04;;;;;;;36.03;14.50;;;8.90;99.90;;;;;;5086987;28;20711;-60
2023/05/02 05:31:31;;;;;;;48.00;19.80;;;9.10;99.90;;;;;;5085793;28;20689;-60
2023/05/02 05:33:57;;;;;;;30.07;14.87;;;9.20;99.90;;;;;;5082314;28;20482;-60
2023/05/02 05:36:24;;;;;;;76.77;27.67;;;9.50;99.90;;;;;;5075071;28;20474;-60
2023/05/02 05:38:51;;;;;;;52.53;25.30;;;9.50;99.90;;;;;;5076906;28;20813;-60
2023/05/02 05:41:19;;;;;;;72.23;26.90;;;9.50;99.90;;;;;;5091680;28;20486;-60
2023/05/02 05:43:46;;;;;;;40.93;17.30;;;9.70;99.90;;;;;;5076799;28;20565;-60
2023/05/02 05:46:13;;;;;;;57.43;20.00;;;9.70;99.90;;;;;;5080311;28;20481;-60
2023/05/02 05:48:40;;;;;;;47.53;15.70;;;;;;;;;;5096291;28;20477;-60
2023/05/02 05:51:07;;;;;;;23.30;12.10;;;9.70;99.90;;;;;;5101307;27;21244;-60
2023/05/02 05:53:34;;;;;;;51.37;20.40;;;9.80;99.90;;;;;;5077776;28;20478;-61
2023/05/02 05:56:08;;;;;;;38.93;18.57;;;9.90;99.90;;;;;;5076942;28;20486;-60
2023/05/02 05:58:36;;;;;;;53.43;22.27;;;10.10;99.90;;;;;;5074791;28;20993;-60
2023/05/02 06:01:03;;;;;;;42.57;21.10;;;10.20;99.90;;;;;;5079867;28;20494;-61
2023/05/02 06:03:30;;;;;;;65.23;30.63;;;10.40;99.90;;;;;;5079877;28;21125;-60
2023/05/02 06:05:57;;;;;;;54.33;25.00;;;10.70;99.90;;;;;;5075034;28;20485;-60
2023/05/02 06:08:24;;;;;;;90.17;29.20;;;11.00;99.90;;;;;;5078588;28;20486;-61
2023/05/02 06:10:50;;;;;;;47.27;23.90;;;11.30;99.90;;;;;;5072881;28;20491;-61
2023/05/02 06:13:17;;;;;;;47.90;23.20;;;11.50;99.90;;;;;;5086646;27;20555;-61
2023/05/02 06:15:45;;;;;;;53.97;24.67;;;11.60;99.90;;;;;;5075185;28;20493;-61
2023/05/02 06:18:12;;;;;;;38.63;20.43;;;11.90;99.90;;;;;;5092626;28;20802;-61
2023/05/02 06:20:38;;;;;;;40.60;22.07;;;12.00;99.90;;;;;;5095349;28;20482;-61
2023/05/02 06:23:05;;;;;;;42.77;23.87;;;12.10;99.90;;;;;;5079563;28;20483;-61
2023/05/02 06:25:32;;;;;;;86.33;32.03;;;12.30;99.90;;;;;;5082731;28;20471;-61
2023/05/02 06:27:59;;;;;;;49.33;26.93;;;12.50;99.90;;;;;;5072996;28;20482;-61
2023/05/02 06:30:26;;;;;;;72.03;32.30;;;12.70;99.90;;;;;;5076151;28;20474;-60
2023/05/02 06:32:54;;;;;;;58.27;29.80;;;13.00;99.90;;;;;;5082765;28;20570;-61
2023/05/02 06:35:21;;;;;;;66.97;36.30;;;13.30;99.90;;;;;;5069377;28;20479;-61
2023/05/02 06:37:47;;;;;;;56.53;31.40;;;13.70;99.90;;;;;;5079809;28;20516;-61
2023/05/02 06:40:14;;;;;;;46.73;29.07;;;13.90;99.90;;;;;;5080208;28;20482;-61
2023/05/02 06:42:41;;;;;;;56.67;29.33;;;14.20;99.90;;;;;;5087516;28;21025;-61
2023/05/02 06:45:08;;;;;;;48.90;31.23;;;14.40;99.90;;;;;;5078917;28;20542;-61
2023/05/02 06:47:35;;;;;;;65.80;33.67;;;14.90;99.90;;;;;;5094597;28;20478;-61
2023/05/02 06:50:03;;;;;;;51.53;29.83;;;15.20;99.90;;;;;;5086215;28;20638;-61
2023/05/02 06:52:30;;;;;;;52.23;34.30;;;15.20;99.00;;;;;;5080162;28;20561;-61
2023/05/02 06:54:56;;;;;;;44.37;30.87;;;15.40;99.30;;;;;;5074064;28;20535;-61
2023/05/02 06:57:24;;;;;;;58.93;36.60;;;15.50;99.30;;;;;;5078701;28;20482;-61
2023/05/02 06:59:51;;;;;;;55.27;33.73;;;15.50;98.50;;;;;;5075481;28;20804;-61
2023/05/02 07:02:17;;;;;;;52.50;33.10;;;15.80;99.10;;;;;;5080348;28;20515;-61
2023/05/02 07:04:44;;;;;;;53.93;34.93;;;16.00;99.20;;;;;;5095990;28;21007;-61
2023/05/02 07:07:12;;;;;;;50.87;33.17;;;16.20;99.20;;;;;;5086411;27;21650;-61
2023/05/02 07:09:39;;;;;;;61.43;33.93;;;16.50;98.70;;;;;;5083269;28;20479;-61
2023/05/02 07:12:06;;;;;;;55.70;33.70;;;16.70;98.90;;;;;;5084998;28;20481;-61
2023/05/02 07:14:32;;;;;;;49.30;33.40;;;16.90;98.70;;;;;;5102592;27;20476;-61
2023/05/02 07:16:59;;;;;;;58.83;34.60;;;17.10;98.80;;;;;;5080402;28;21312;-61
2023/05/02 07:19:26;;;;;;;53.83;35.23;;;17.30;98.60;;;;;;5076334;28;20482;-62
2023/05/02 07:21:52;;;;;;;53.57;35.77;;;17.40;97.90;;;;;;5077973;28;20920;-62
2023/05/02 07:24:20;;;;;;;55.10;35.50;;;17.50;96.10;;;;;;5085476;28;20818;-62
2023/05/02 07:26:47;;;;;;;54.00;35.73;;;17.50;96.70;;;;;;5081535;28;20490;-62
2023/05/02 07:29:14;;;;;;;49.50;35.77;;;17.40;96.90;;;;;;5087594;27;20477;-61
2023/05/02 07:31:41;;;;;;;59.07;33.73;;;17.20;96.90;;;;;;5089007;28;20483;-61
2023/05/02 07:34:07;;;;;;;52.73;35.80;;;17.00;96.20;;;;;;5073191;28;20477;-61
2023/05/02 07:36:34;;;;;;;71.40;39.30;;;16.80;96.90;;;;;;5092776;28;20474;-61
2023/05/02 07:39:01;;;;;;;61.57;36.90;;;16.40;96.30;;;;;;5088868;28;20577;-60
2023/05/02 07:41:29;;;;;;;63.17;37.77;;;16.20;96.10;;;;;;5087800;27;20941;-60
2023/05/02 07:43:56;;;;;;;58.53;35.80;;;16.00;96.30;;;;;;5087296;27;20496;-61
2023/05/02 07:46:23;;;;;;;90.70;42.77;;;15.80;96.60;;;;;;5095160;27;20483;-61
2023/05/02 07:48:50;;;;;;;63.00;37.90;;;15.70;97.30;;;;;;5081412;28;20536;-60
2023/05/02 07:51:19;;;;;;;61.43;38.43;;;15.70;97.30;;;;;;5085971;27;20478;-62
2023/05/02 07:53:45;;;;;;;55.43;34.60;;;15.70;97.80;;;;;;5093671;28;20496;-62
2023/05/02 07:56:12;;;;;;;62.17;35.10;;;15.80;98.00;;;;;;5092315;27;20493;-61
2023/05/02 07:58:40;;;;;;;49.37;33.80;;;15.90;98.00;;;;;;5074154;28;20482;-62
2023/05/02 08:01:07;;;;;;;58.43;36.77;;;16.30;98.50;;;;;;5086963;28;20846;-61
2023/05/02 08:03:33;;;;;;;60.70;37.10;;;16.40;97.60;;;;;;5092456;28;20918;-61
2023/05/02 08:06:01;;;;;;;57.20;35.20;;;16.50;97.40;;;;;;5093787;28;20488;-61
2023/05/02 08:08:28;;;;;;;74.57;38.30;;;16.80;97.10;;;;;;5079446;28;21204;-61
2023/05/02 08:10:55;;;;;;;63.30;34.07;;;16.90;96.80;;;;;;5085044;28;21272;-61
2023/05/02 08:13:21;;;;;;;59.97;36.40;;;16.80;96.30;;;;;;5089599;27;20481;-62
2023/05/02 08:15:49;;;;;;;54.83;35.27;;;16.90;96.10;;;;;;5090867;27;20482;-62
2023/05/02 08:18:16;;;;;;;53.27;34.27;;;16.80;95.50;;;;;;5077436;28;20604;-62
2023/05/02 08:20:43;;;;;;;57.77;33.87;;;17.00;96.50;;;;;;5074019;28;20490;-61
2023/05/02 08:23:10;;;;;;;47.00;31.73;;;16.80;96.00;;;;;;5076328;28;20888;-62
2023/05/02 08:25:37;;;;;;;52.73;32.47;;;17.00;96.10;;;;;;5077293;28;20493;-61
2023/05/02 08:28:04;;;;;;;52.30;33.50;;;17.00;95.70;;;;;;5078648;28;20483;-62
2023/05/02 08:30:30;;;;;;;60.33;36.63;;;17.30;96.80;;;;;;5074210;28;20486;-62
2023/05/02 08:32:58;;;;;;;50.43;33.17;;;17.50;96.00;;;;;;5085805;28;20483;-62
2023/05/02 08:35:25;;;;;;;54.77;34.70;;;17.50;96.00;;;;;;5081013;28;20478;-61
2023/05/02 08:37:52;;;;;;;47.27;31.10;;;17.80;96.10;;;;;;5073876;28;20490;-62
2023/05/02 08:40:21;;;;;;;47.20;31.60;;;18.00;95.50;;;;;;5089136;28;20527;-62
2023/05/02 08:42:48;;;;;;;50.83;30.00;;;18.40;96.30;;;;;;5092193;28;20530;-62
2023/05/02 08:45:15;;;;;;;49.93;31.40;;;18.40;94.20;;;;;;5090830;27;20894;-62
2023/05/02 08:47:43;;;;;;;44.47;29.50;;;18.40;93.70;;;;;;5100215;27;20485;-62
2023/05/02 08:50:11;;;;;;;50.70;31.93;;;18.30;93.80;;;;;;5076431;28;20486;-62
2023/05/02 08:52:39;;;;;;;49.90;30.07;;;18.30;94.20;;;;;;5082063;28;20477;-62
2023/05/02 08:55:07;;;;;;;56.40;32.70;;;18.20;93.90;;;;;;5097180;28;21055;-62
2023/05/02 08:57:34;;;;;;;50.10;32.83;;;18.20;94.80;;;;;;5084243;27;20573;-62
2023/05/02 09:00:01;;;;;;;50.03;29.47;;;18.10;94.10;;;;;;5089780;28;20562;-63
2023/05/02 09:02:50;;;;;;;53.93;33.70;;;18.20;94.40;;;;;;5083212;28;20712;-62
2023/05/02 09:05:20;;;;;;;52.57;31.00;;;17.90;93.80;;;;;;5091705;27;20487;-62
2023/05/02 09:07:48;;;;;;;51.33;31.93;;;17.80;94.30;;;;;;5074138;28;20482;-62
2023/05/02 09:10:15;;;;;;;47.90;33.40;;;17.80;93.50;;;;;;5086377;28;20485;-62
2023/05/02 09:12:42;;;;;;;54.20;30.83;;;17.80;94.30;;;;;;5092235;27;20480;-61
2023/05/02 09:15:10;;;;;;;54.43;33.80;;;17.80;94.10;;;;;;5083067;27;20527;-62
2023/05/02 09:17:44;;;;;;;50.00;29.50;;;17.70;93.10;;;;;;5079601;28;20469;-61
2023/05/02 09:20:11;;;;;;;51.50;30.47;;;17.60;93.20;;;;;;5084667;28;20822;-62
2023/05/02 09:22:47;;;;;;;49.30;31.73;;;17.50;94.40;;;;;;5081940;28;20917;-62
2023/05/02 09:25:14;;;;;;;57.13;31.60;;;17.50;95.10;;;;;;5083631;28;20474;-61
2023/05/02 09:27:54;;;;;;;59.67;32.43;;;17.60;93.90;;;;;;5073818;28;21034;-61
2023/05/02 09:30:23;;;;;;;49.30;30.00;;;17.70;94.10;;;;;;5083902;28;21187;-62
2023/05/02 09:32:51;;;;;;;37.50;26.00;;;17.70;94.00;;;;;;5082036;28;20485;-61
2023/05/02 09:35:22;;;;;;;46.43;28.43;;;17.90;94.30;;;;;;5078569;28;20496;-62
2023/05/02 09:37:51;;;;;;;46.40;28.30;;;17.90;94.30;;;;;;5075529;27;20485;-62
2023/05/02 09:40:19;;;;;;;50.40;30.23;;;18.20;95.10;;;;;;5079760;28;20488;-63
2023/05/02 09:42:46;;;;;;;55.33;33.00;;;18.30;95.00;;;;;;5087089;28;20979;-62
2023/05/02 09:45:24;;;;;;;46.73;26.97;;;18.50;94.60;;;;;;5070504;28;20478;-62
2023/05/02 09:47:51;;;;;;;52.20;32.23;;;18.50;93.60;;;;;;5089802;28;20468;-63
2023/05/02 09:50:35;;;;;;;47.43;28.27;;;18.60;94.10;;;;;;5090529;28;20478;-62
2023/05/02 09:53:04;;;;;;;69.13;38.73;;;18.70;94.40;;;;;;5083493;28;20469;-62
2023/05/02 09:55:31;;;;;;;76.90;38.03;;;18.70;94.30;;;;;;5095999;28;20486;-62
2023/05/02 09:57:59;;;;;;;57.90;32.20;;;18.70;93.80;;;;;;5078870;28;20586;-62
2023/05/02 10:00:39;;;;;;;83.73;35.43;;;18.60;93.70;;;;;;5077756;28;20996;-62
2023/05/02 10:03:07;;;;;;;52.93;27.70;;;18.40;93.20;;;;;;5075349;28;20482;-62
2023/05/02 10:05:37;;;;;;;74.90;30.73;;;18.50;93.70;;;;;;5075728;28;20539;-62
2023/05/02 10:08:06;;;;;;;63.53;29.93;;;18.40;93.60;;;;;;5074131;28;20565;-62
2023/05/02 10:10:35;;;;;;;79.00;33.47;;;18.30;94.20;;;;;;5068856;28;20478;-63
2023/05/02 10:13:03;;;;;;;54.20;29.90;;;18.30;93.90;;;;;;5091611;27;20482;-62
2023/05/02 10:15:32;;;;;;;83.90;32.47;;;18.20;93.30;;;;;;5084250;28;20997;-62
2023/05/02 10:18:01;;;;;;;55.63;27.90;;;18.10;93.30;;;;;;5075283;28;20487;-62
2023/05/02 10:20:32;;;;;;;86.10;33.30;;;18.20;94.00;;;;;;5067568;28;20488;-62
2023/05/02 10:23:00;;;;;;;58.83;30.20;;;18.20;93.10;;;;;;5085756;27;20508;-63
2023/05/02 10:25:28;;;;;;;82.47;28.53;;;18.20;92.60;;;;;;5075275;28;20990;-62
2023/05/02 10:27:57;;;;;;;64.27;29.60;;;18.10;92.40;;;;;;5071341;28;20479;-62
2023/05/02 10:30:24;;;;;;;73.17;30.93;;;18.20;93.60;;;;;;5076382;28;20557;-62
2023/05/02 10:32:52;;;;;;;43.73;25.93;;;18.40;93.40;;;;;;5078894;28;20489;-62
2023/05/02 10:35:19;;;;;;;43.27;25.70;;;18.60;93.80;;;;;;5096326;28;20844;-62
2023/05/02 10:37:48;;;;;;;45.03;24.60;;;18.60;92.60;;;;;;5079675;28;20869;-62
2023/05/02 10:40:15;;;;;;;37.80;23.97;;;18.60;92.30;;;;;;5069106;28;20508;-62
2023/05/02 10:42:46;;;;;;;40.73;25.80;;;18.70;92.80;;;;;;5089419;27;20970;-61
2023/05/02 10:45:29;;;;;;;44.10;25.17;;;18.60;93.00;;;;;;5069689;28;20910;-62
2023/05/02 10:48:17;;;;;;;41.50;24.63;;;18.50;92.60;;;;;;5063083;28;21015;-63
2023/05/02 10:50:46;;;;;;;39.00;25.40;;;18.40;92.70;;;;;;5068786;28;20501;-62
2023/05/02 10:53:23;;;;;;;42.83;23.97;;;18.20;92.80;;;;;;5085768;28;20877;-62
2023/05/02 10:56:12;;;;;;;32.70;22.97;;;18.10;92.70;;;;;;5090931;28;20508;-62
2023/05/02 10:58:41;;;;;;;42.63;24.50;;;18.00;92.60;;;;;;5079429;28;20940;-62
2023/05/02 11:01:33;;;;;;;37.97;23.27;;;18.00;93.00;;;;;;5081733;27;20489;-62
2023/05/02 11:04:02;;;;;;;53.90;25.77;;;17.90;93.00;;;;;;5056780;28;20591;-62
2023/05/02 11:06:32;;;;;;;42.10;25.67;;;17.80;93.00;;;;;;5075520;28;20730;-62
2023/05/02 11:09:33;;;;;;;37.90;23.40;;;17.80;92.40;;;;;;5081238;28;20823;-62
2023/05/02 11:12:00;;;;;;;39.93;23.70;;;17.70;92.80;;;;;;5098068;27;21029;-62
2023/05/02 11:14:48;;;;;;;46.20;27.20;;;17.70;92.80;;;;;;5087294;27;20578;-62
2023/05/02 11:17:16;;;;;;;38.67;25.00;;;17.80;93.10;;;;;;5077425;28;20970;-62
2023/05/02 11:20:27;;;;;;;41.50;21.83;;;18.00;93.00;;;;;;5077708;28;20479;-62
2023/05/02 11:22:59;;;;;;;37.87;21.47;;;18.10;93.30;;;;;;5076617;28;20484;-62
2023/05/02 11:25:35;;;;;;;38.57;25.83;;;18.00;92.40;;;;;;5089051;28;20478;-63
2023/05/02 11:28:02;;;;;;;45.13;23.47;;;18.10;93.60;;;;;;5081129;28;20953;-63
2023/05/02 11:30:43;;;;;;;41.17;26.47;;;18.10;93.10;;;;;;5059042;28;20903;-62
2023/05/02 11:33:16;;;;;;;33.73;21.17;;;18.10;92.50;;;;;;5085218;27;21029;-62
2023/05/02 11:35:43;;;;;;;37.07;22.30;;;18.20;92.80;;;;;;5090736;28;21071;-62
2023/05/02 11:38:11;;;;;;;35.13;21.70;;;18.20;93.20;;;;;;5080515;28;21156;-62
2023/05/02 11:40:38;;;;;;;38.77;21.30;;;18.20;93.30;;;;;;5076355;28;20535;-62
2023/05/02 11:43:13;;;;;;;32.43;20.47;;;18.20;92.20;;;;;;5080853;28;20490;-62
2023/05/02 11:45:42;;;;;;;32.67;20.10;;;18.30;91.90;;;;;;5094078;27;20525;-62
2023/05/02 11:48:11;;;;;;;32.87;20.23;;;18.40;92.40;;;;;;5094406;27;20527;-62
2023/05/02 11:50:42;;;;;;;31.33;19.00;;;18.40;91.90;;;;;;5074690;28;20939;-63
2023/05/02 11:53:13;;;;;;;33.30;19.73;;;18.70;92.20;;;;;;5087465;28;20485;-63
2023/05/02 11:55:45;;;;;;;32.23;19.70;;;18.90;92.50;;;;;;5096933;28;20470;-62
2023/05/02 11:58:16;;;;;;;34.50;20.67;;;19.00;92.40;;;;;;5075465;28;20466;-63
2023/05/02 12:00:46;;;;;;;34.83;18.50;;;19.70;91.80;;;;;;5085122;28;20778;-63
2023/05/02 12:03:23;;;;;;;32.57;19.23;;;19.40;91.30;;;;;;5086693;28;20471;-62
2023/05/02 12:05:51;;;;;;;30.43;19.20;;;19.70;92.20;;;;;;5067194;28;20547;-62
2023/05/02 12:08:23;;;;;;;32.93;19.50;;;19.90;92.40;;;;;;5084973;28;21015;-63
2023/05/02 12:10:52;;;;;;;28.20;17.17;;;20.00;91.30;;;;;;5096057;27;20453;-62
2023/05/02 12:13:19;;;;;;;30.90;17.97;;;20.20;91.40;;;;;;5080126;27;20481;-63
2023/05/02 12:15:48;;;;;;;31.23;19.20;;;20.30;90.30;;;;;;5103656;27;20488;-63
2023/05/02 12:18:15;;;;;;;30.23;18.30;;;20.60;92.30;;;;;;5086579;27;20473;-63
2023/05/02 12:20:42;;;;;;;33.10;17.30;;;21.10;90.70;;;;;;5093488;27;20971;-63
2023/05/02 12:23:10;;;;;;;24.47;16.40;;;21.30;90.30;;;;;;5075750;27;20473;-64
2023/05/02 12:25:40;;;;;;;24.43;16.23;;;21.30;89.00;;;;;;5097083;27;20552;-64
2023/05/02 12:28:07;;;;;;;26.50;17.30;;;21.20;87.50;;;;;;5079263;28;20958;-63
2023/05/02 12:30:37;;;;;;;30.37;20.60;;;21.20;90.20;;;;;;5075663;28;20564;-64
2023/05/02 12:33:05;;;;;;;22.53;15.77;;;21.40;88.10;;;;;;5087155;28;20584;-64
2023/05/02 12:35:33;;;;;;;30.90;19.80;;;21.60;90.30;;;;;;5085144;27;20482;-64
2023/05/02 12:38:13;;;;;;;18.60;13.83;;;;;;;;;;5076929;28;20505;-63
2023/05/02 12:40:48;;;;;;;22.93;15.60;;;22.20;88.20;;;;;;5088399;27;20457;-63
2023/05/02 12:43:15;;;;;;;25.40;16.40;;;22.40;87.70;;;;;;5084969;28;20515;-63